• Join FlightAware (Why Join?)
  • Login
  • US Flag 
04:03PM EDT


 

Airport Tracker/Info


-or-


 

Live Flight TrackerFlight Track Log ✈ UAL4625 ✈ 08-Jun-2013 ✈ KBOS - KIAD

Flight Track Log - Related Links

Times and Time Zones

All times are in EDT time to prevent confusion due to time zone crossing. See the UAL4625 flight status page for this flight to view local times or setup timezone preferences in your user account.

Time Position Orientation Groundspeed Altitude Reporting Facility
EDT Latitude Longitude Course Direction KTS MPH feet Rate Location/Type
10:14AM 42.3500 -71.0333 240° Southwest 147 169 800  Level KA90
10:15AM 42.3333 -71.0500 216° Southwest 189 217 2,000 1,860 Climbing KA90
10:16AM 42.3000 -71.1167 236° Southwest 237 273 3,600 1,740 Climbing KA90
10:17AM 42.2686 -71.1944 241° Southwest 234 269 5,800 1,980 Climbing Boston Center
10:18AM 42.3144 -70.7195 172° South  Level FlightAware Approximate
10:18AM 42.2611 -71.2786 263° West 244 281 7,900  Level Boston Center
10:19AM 42.2482 -70.7943 228° Southwest  Level FlightAware Approximate
10:19AM 42.2517 -71.3828 263° West 261 300 9,900  Level Boston Center
10:20AM 42.1985 -70.8980 240° Southwest  Level FlightAware Approximate
10:20AM 42.2464 -71.4922 266° West 261 300 11,400  Level Boston Center
10:21AM 42.2408 -71.5875 266° West 281 323 12,400 1,080 Climbing Boston Center
10:22AM 42.2314 -71.7000 264° West 300 345 13,600 1,140 Climbing Boston Center
10:23AM 42.2217 -71.8289 264° West 315 362 14,700 1,020 Climbing Boston Center
10:24AM 42.2158 -71.9411 266° West 322 371 15,700 840 Climbing Boston Center
10:25AM 42.2061 -72.0758 264° West 334 384 16,400 600 Climbing Boston Center
10:26AM 42.1958 -72.1906 263° West 345 397 16,900 600 Climbing Boston Center
10:27AM 42.1606 -72.3253 251° West 350 403 17,600 660 Climbing Boston Center
10:28AM 42.1294 -72.4400 250° West 356 410 18,300 720 Climbing Boston Center
10:29AM 42.0961 -72.5631 250° West 356 410 19,100 840 Climbing Boston Center
10:30AM 42.0603 -72.6944 250° West 356 410 20,000 900 Climbing Boston Center
10:31AM 42.0247 -72.8203 249° West 349 402 20,900 840 Climbing Boston Center
10:32AM 41.9908 -72.9456 250° West 354 407 21,700 840 Climbing Boston Center
10:33AM 41.9547 -73.0653 248° West 368 423 22,600 840 Climbing Boston Center
10:34AM 41.8958 -73.1681 232° Southwest 362 417 23,400 840 Climbing Boston Center
10:35AM 41.8347 -73.2675 231° Southwest 357 411 24,300 840 Climbing Boston Center
10:36AM 41.7819 -73.3450 228° Southwest 352 405 25,100 1,020 Climbing Boston Center
10:37AM 41.7019 -73.4578 226° Southwest 352 405 26,400 1,140 Climbing Boston Center
10:38AM 41.6406 -73.5483 228° Southwest 346 398 27,400 540 Climbing Boston Center
10:40AM 41.5356 -73.7033 228° Southwest 337 388 28,000 180 Climbing New York Center
10:41AM 41.4642 -73.8053 227° Southwest 352 405 28,000  Level New York Center
10:42AM 41.3928 -73.9100 228° Southwest 374 430 28,000  Level New York Center
10:43AM 41.3169 -74.0142 226° Southwest 387 445 28,000  Level New York Center
10:44AM 41.2433 -74.1181 227° Southwest 393 452 28,000  Level New York Center
10:45AM 41.1653 -74.2217 225° Southwest 393 452 28,000  Level New York Center
10:46AM 41.0914 -74.3308 228° Southwest 393 452 28,000  Level New York Center
10:47AM 41.0150 -74.4394 227° Southwest 403 464 28,000  Level New York Center
10:48AM 40.9367 -74.5425 225° Southwest 408 470 28,000  Level New York Center
10:49AM 40.8764 -74.6681 238° Southwest 413 475 28,000  Level New York Center
10:50AM 40.8200 -74.7964 240° Southwest 413 475 28,000  Level New York Center
10:51AM 40.7614 -74.9272 239° Southwest 407 468 28,000 -60 Level New York Center
10:52AM 40.7047 -75.0525 239° Southwest 407 468 27,900  Descending New York Center
10:53AM 40.6461 -75.1744 238° Southwest 414 476 28,000  Climbing New York Center
10:54AM 40.5869 -75.3047 239° Southwest 414 476 28,000 -600 Level New York Center
10:55AM 40.5278 -75.4319 239° Southwest 414 476 26,900 -1,920 Descending New York Center
10:56AM 40.4686 -75.5614 239° Southwest 414 476 24,200 -2,400 Descending New York Center
10:57AM 40.4139 -75.6750 238° Southwest 397 457 22,100 -2,100 Descending New York Center
10:58AM 40.3589 -75.7936 239° Southwest 391 450 20,100 -1,080 Descending New York Center
10:59AM 40.2972 -75.9197 237° Southwest 386 444 20,000 -60 Descending New York Center
11:00AM 40.2397 -76.0406 238° Southwest 386 444 20,000 -60 Level New York Center
11:01AM 40.1844 -76.1561 238° Southwest 386 444 19,900 -960 Descending New York Center
11:02AM 40.1358 -76.2581 238° Southwest 386 444 18,100 -1,560 Descending New York Center
11:03AM 40.0781 -76.3811 238° Southwest 366 421 16,900 -1,020 Descending New York Center
11:05AM 39.9833 -76.6000 241° Southwest 361 415 15,100 -660 Descending Potomac TRACON
11:06AM 39.9333 -76.7167 241° Southwest 361 415 15,000 -300 Descending Potomac TRACON
11:07AM 39.8667 -76.8167 229° Southwest 362 417 14,500 -1,260 Descending Potomac TRACON
11:08AM 39.8167 -76.9333 241° Southwest 359 413 12,500 -1,680 Descending Potomac TRACON
11:08AM 39.7667 -77.0333 237° Southwest 361 415 11,300 -1,260 Descending Potomac TRACON
11:10AM 39.7167 -77.1500 241° Southwest 348 400 10,000 -660 Descending Potomac TRACON
11:10AM 39.6833 -77.2333 243° Southwest 292 336 10,000 -360 Level Potomac TRACON
11:11AM 39.6167 -77.2833 210° Southwest 284 327 9,400 -900 Descending Potomac TRACON
11:12AM 39.5333 -77.3167 197° South 291 335 8,300 -960 Descending Potomac TRACON
11:13AM 39.4667 -77.3500 201° Southwest 281 323 7,500 -900 Descending Potomac TRACON
11:14AM 39.3833 -77.3667 189° South 277 319 6,500 -1,200 Descending Potomac TRACON
11:15AM 39.3167 -77.3667 180° South 270 311 5,200 -840 Descending Potomac TRACON
11:16AM 39.2500 -77.3667 180° South 266 306 5,000 -480 Descending Potomac TRACON
11:17AM 39.1833 -77.3667 180° South 272 313 4,400 -540 Descending Potomac TRACON
11:18AM 39.1000 -77.3500 171° South 257 296 4,000 -240 Descending Potomac TRACON
11:19AM 39.0333 -77.3500 180° South 264 304 4,000 -360 Level Potomac TRACON
11:20AM 38.9500 -77.3667 189° South 261 300 3,300 -540 Descending Potomac TRACON
11:21AM 38.8833 -77.3667 180° South 266 306 3,000 -300 Descending Potomac TRACON
11:22AM 38.8167 -77.3667 180° South 228 262 2,800 -540 Descending Potomac TRACON
11:23AM 38.7667 -77.3833 195° South 227 261 2,000 -840 Descending Potomac TRACON